createdAt,value
2023-05-16T00:00:09.386Z,12.93
2023-05-16T00:03:13.352Z,12.85
2023-05-16T00:06:17.038Z,12.95
2023-05-16T00:09:19.934Z,12.87
2023-05-16T00:12:23.066Z,12.82
2023-05-16T00:15:25.820Z,12.91
2023-05-16T00:18:28.889Z,13.02
2023-05-16T00:21:32.009Z,12.95
2023-05-16T00:24:34.965Z,13.03
2023-05-16T00:27:37.751Z,13.07
2023-05-16T00:30:41.116Z,13.09
2023-05-16T00:33:43.798Z,13.10
2023-05-16T00:36:46.644Z,13.11
2023-05-16T00:39:50.797Z,13.07
2023-05-16T00:42:53.503Z,13.04
2023-05-16T00:45:58.156Z,13.00
2023-05-16T00:49:00.967Z,12.94
2023-05-16T00:52:04.937Z,12.93
2023-05-16T00:55:10.891Z,12.88
2023-05-16T00:58:14.534Z,12.81
2023-05-16T01:01:17.389Z,12.88
2023-05-16T01:04:21.413Z,12.85
2023-05-16T01:07:24.194Z,12.89
2023-05-16T01:10:36.881Z,12.94
2023-05-16T01:13:42.580Z,12.88
2023-05-16T01:16:52.701Z,12.91
2023-05-16T01:20:05.268Z,12.86
2023-05-16T01:23:23.776Z,12.85
2023-05-16T01:26:30.302Z,12.80
2023-05-16T01:29:33.326Z,12.85
2023-05-16T01:32:36.096Z,12.84
2023-05-16T01:35:54.513Z,12.76
2023-05-16T01:39:03.537Z,12.77
2023-05-16T01:42:11.158Z,12.80
2023-05-16T01:45:24.816Z,12.83
2023-05-16T01:48:33.131Z,12.76
2023-05-16T01:51:40.947Z,12.71
2023-05-16T01:54:46.013Z,12.72
2023-05-16T01:57:50.414Z,12.75
2023-05-16T02:00:54.018Z,12.78
2023-05-16T02:03:57.783Z,12.78
2023-05-16T02:07:02.011Z,12.80
2023-05-16T02:10:05.221Z,12.78
2023-05-16T02:13:11.318Z,12.86
2023-05-16T02:16:14.059Z,12.85
2023-05-16T02:19:17.919Z,12.84
2023-05-16T02:22:20.709Z,12.87
2023-05-16T02:25:24.037Z,12.87
2023-05-16T02:28:26.819Z,12.83
2023-05-16T02:31:34.965Z,12.85
2023-05-16T02:34:37.800Z,12.89
2023-05-16T02:37:41.026Z,12.89
2023-05-16T02:40:44.000Z,12.87
2023-05-16T02:43:47.237Z,12.85
2023-05-16T02:46:50.087Z,12.77
2023-05-16T02:49:52.905Z,12.81
2023-05-16T02:52:55.802Z,12.81
2023-05-16T02:55:58.482Z,12.88
2023-05-16T02:59:01.170Z,12.85
2023-05-16T03:02:04.357Z,12.89
2023-05-16T03:05:10.122Z,12.87
2023-05-16T03:08:12.931Z,12.96
2023-05-16T03:11:17.603Z,12.79
2023-05-16T03:14:20.436Z,12.77
2023-05-16T03:17:23.259Z,12.75
2023-05-16T03:20:27.438Z,12.76
2023-05-16T03:23:30.230Z,12.77
2023-05-16T03:26:33.142Z,12.73
2023-05-16T03:29:36.259Z,12.90
2023-05-16T03:32:39.146Z,12.81
2023-05-16T03:35:43.898Z,12.79
2023-05-16T03:38:46.612Z,12.77
2023-05-16T03:41:49.431Z,12.95
2023-05-16T03:44:52.168Z,12.86
2023-05-16T03:47:54.882Z,12.80
2023-05-16T03:50:57.664Z,12.79
2023-05-16T03:54:00.422Z,12.64
2023-05-16T03:57:03.596Z,12.62
2023-05-16T04:00:11.315Z,12.74
2023-05-16T04:03:16.748Z,12.71
2023-05-16T04:06:19.633Z,12.72
2023-05-16T04:09:22.391Z,12.83
2023-05-16T04:12:25.185Z,12.85
2023-05-16T04:15:28.362Z,12.93
2023-05-16T04:18:31.332Z,12.97
2023-05-16T04:21:34.355Z,13.01
2023-05-16T04:24:37.500Z,13.04
2023-05-16T04:27:40.248Z,13.01
2023-05-16T04:30:43.015Z,13.05
2023-05-16T04:33:46.162Z,13.00
2023-05-16T04:36:48.907Z,12.97
2023-05-16T04:39:51.668Z,13.05
2023-05-16T04:42:55.563Z,13.05
2023-05-16T04:45:59.070Z,13.05
2023-05-16T04:49:01.834Z,13.00
2023-05-16T04:52:05.143Z,13.05
2023-05-16T04:55:08.444Z,13.09
2023-05-16T04:58:11.170Z,13.09
2023-05-16T05:01:14.002Z,13.20
2023-05-16T05:04:17.908Z,13.19
2023-05-16T05:07:20.916Z,13.16
2023-05-16T05:10:23.658Z,13.12
2023-05-16T05:13:26.468Z,13.15
2023-05-16T05:16:29.241Z,13.20
2023-05-16T05:19:31.947Z,13.23
2023-05-16T05:22:34.716Z,13.26
2023-05-16T05:25:37.956Z,13.31
2023-05-16T05:28:42.162Z,13.30
2023-05-16T05:31:49.249Z,13.22
2023-05-16T05:34:55.589Z,13.22
2023-05-16T05:37:58.772Z,13.27
2023-05-16T05:41:03.753Z,13.31
2023-05-16T05:44:10.122Z,13.27
2023-05-16T05:47:14.565Z,13.32
2023-05-16T05:54:14.351Z,13.40
2023-05-16T05:57:17.308Z,13.43
2023-05-16T06:00:20.289Z,13.42
2023-05-16T06:03:23.268Z,13.41
2023-05-16T06:06:26.354Z,13.53
2023-05-16T06:09:29.092Z,13.63
2023-05-16T06:12:32.119Z,13.69
2023-05-16T06:15:34.821Z,13.86
2023-05-16T06:18:37.741Z,13.92
2023-05-16T06:21:40.561Z,14.14
2023-05-16T06:24:43.267Z,14.20
2023-05-16T06:27:46.143Z,14.27
2023-05-16T06:30:50.963Z,14.31
2023-05-16T06:33:54.290Z,14.31
2023-05-16T06:36:56.994Z,14.39
2023-05-16T06:39:59.665Z,14.34
2023-05-16T06:43:02.378Z,14.37
2023-05-16T06:46:05.318Z,14.43
2023-05-16T06:49:09.715Z,14.48
2023-05-16T06:52:12.482Z,14.62
2023-05-16T06:55:17.353Z,14.57
2023-05-16T06:58:20.054Z,14.55
2023-05-16T07:01:22.883Z,14.50
2023-05-16T07:04:25.883Z,14.64
2023-05-16T07:07:28.939Z,14.83
2023-05-16T07:10:31.692Z,15.18
2023-05-16T07:13:36.003Z,15.31
2023-05-16T07:16:39.237Z,15.45
2023-05-16T07:19:43.042Z,15.33
2023-05-16T07:22:45.793Z,15.40
2023-05-16T07:25:50.162Z,15.44
2023-05-16T07:28:53.052Z,15.53
2023-05-16T07:31:55.828Z,15.62
2023-05-16T07:34:58.746Z,15.93
2023-05-16T07:38:04.581Z,16.26
2023-05-16T07:41:08.571Z,16.53
2023-05-16T07:44:11.535Z,16.81
2023-05-16T07:47:14.561Z,16.61
2023-05-16T07:50:17.423Z,16.67
2023-05-16T07:53:21.997Z,16.21
2023-05-16T07:56:24.912Z,16.00
2023-05-16T07:59:28.909Z,15.73
2023-05-16T08:02:32.045Z,15.61
2023-05-16T08:05:35.102Z,15.60
2023-05-16T08:08:38.634Z,15.58
2023-05-16T08:11:45.370Z,15.51
2023-05-16T08:14:48.337Z,15.53
2023-05-16T08:17:51.558Z,15.52
2023-05-16T08:20:54.514Z,15.50
2023-05-16T08:23:57.484Z,15.52
2023-05-16T08:27:00.680Z,15.50
2023-05-16T08:30:04.008Z,15.58
2023-05-16T08:33:07.164Z,15.54
2023-05-16T08:36:10.524Z,15.67
2023-05-16T08:39:16.074Z,15.76
2023-05-16T08:42:19.002Z,15.98
2023-05-16T08:45:23.736Z,16.23
2023-05-16T08:48:28.832Z,16.36
2023-05-16T08:51:37.001Z,16.24
2023-05-16T08:54:41.293Z,16.38
2023-05-16T08:57:45.725Z,16.40
2023-05-16T09:00:49.032Z,16.72
2023-05-16T09:03:53.028Z,16.69
2023-05-16T09:06:56.366Z,16.49
2023-05-16T09:09:59.252Z,16.61
2023-05-16T09:13:02.010Z,16.64
2023-05-16T09:16:09.460Z,16.44
2023-05-16T09:19:14.290Z,16.38
2023-05-16T09:22:17.261Z,16.71
2023-05-16T09:25:29.500Z,17.04
2023-05-16T09:28:34.991Z,17.98
2023-05-16T09:31:38.641Z,18.02
2023-05-16T09:34:45.953Z,18.59
2023-05-16T09:37:49.895Z,19.17
2023-05-16T09:40:52.794Z,19.01
2023-05-16T09:43:55.824Z,19.03
2023-05-16T09:46:58.689Z,19.06
2023-05-16T09:50:01.604Z,19.17
2023-05-16T09:53:05.773Z,19.31
2023-05-16T09:56:11.842Z,19.46
2023-05-16T09:59:15.176Z,19.77
2023-05-16T10:02:19.461Z,20.10
2023-05-16T10:05:22.974Z,19.61
2023-05-16T10:08:27.467Z,19.94
2023-05-16T10:11:31.591Z,20.49
2023-05-16T10:14:37.713Z,19.87
2023-05-16T10:17:43.481Z,19.90
2023-05-16T10:20:49.788Z,19.75
2023-05-16T10:23:54.480Z,19.48
2023-05-16T10:26:57.386Z,19.37
2023-05-16T10:30:02.158Z,19.34
2023-05-16T10:33:05.291Z,19.43
2023-05-16T10:36:10.111Z,19.18
2023-05-16T10:39:14.604Z,18.90
2023-05-16T10:42:18.554Z,18.66
2023-05-16T10:45:22.863Z,18.83
2023-05-16T10:48:43.644Z,18.66
2023-05-16T10:51:46.713Z,18.79
2023-05-16T10:54:52.446Z,18.84
2023-05-16T10:57:57.216Z,18.76
2023-05-16T11:01:18.079Z,19.04
2023-05-16T11:04:20.974Z,19.29
2023-05-16T11:07:25.211Z,19.43
2023-05-16T11:10:27.964Z,19.25
2023-05-16T11:13:33.336Z,19.10
2023-05-16T11:16:36.758Z,19.20
2023-05-16T11:19:50.493Z,18.93
2023-05-16T11:23:19.751Z,19.02
2023-05-16T11:26:23.578Z,19.14
2023-05-16T11:29:29.153Z,19.32
2023-05-16T11:32:35.250Z,19.28
2023-05-16T11:35:38.111Z,19.20
2023-05-16T11:38:44.014Z,19.29
2023-05-16T11:41:48.805Z,19.85
2023-05-16T11:45:07.734Z,19.92
2023-05-16T11:48:12.894Z,19.82
2023-05-16T11:51:20.652Z,19.96
2023-05-16T11:54:24.561Z,19.97
2023-05-16T11:57:27.979Z,19.82
2023-05-16T12:00:30.835Z,20.07
2023-05-16T12:03:33.769Z,20.16
2023-05-16T12:06:37.735Z,19.92
2023-05-16T12:09:40.612Z,19.78
2023-05-16T12:12:46.535Z,19.77
2023-05-16T12:15:50.021Z,19.98
2023-05-16T12:18:53.353Z,20.08
2023-05-16T12:21:56.278Z,20.06
2023-05-16T12:25:26.969Z,19.98
2023-05-16T12:28:39.414Z,19.75
2023-05-16T12:31:42.536Z,19.28
2023-05-16T12:34:54.967Z,19.18
2023-05-16T12:37:58.018Z,18.90
2023-05-16T12:41:00.765Z,18.80
2023-05-16T12:44:17.038Z,18.67
2023-05-16T12:47:19.835Z,18.73
2023-05-16T12:50:23.249Z,18.70
2023-05-16T12:53:26.886Z,18.54
2023-05-16T12:56:29.602Z,18.49
2023-05-16T12:59:32.351Z,18.40
2023-05-16T13:02:35.118Z,18.56
2023-05-16T13:05:37.948Z,18.82
2023-05-16T13:08:40.688Z,18.78
2023-05-16T13:11:43.456Z,19.24
2023-05-16T13:14:46.498Z,19.53
2023-05-16T13:17:49.298Z,20.15
2023-05-16T13:20:53.065Z,20.17
2023-05-16T13:23:55.945Z,20.45
2023-05-16T13:26:59.795Z,21.11
2023-05-16T13:30:04.377Z,21.94
2023-05-16T13:33:07.156Z,22.07
2023-05-16T13:36:09.990Z,21.82
2023-05-16T13:39:13.137Z,21.42
2023-05-16T13:42:16.182Z,21.36
2023-05-16T13:45:19.326Z,21.66
2023-05-16T13:48:22.238Z,22.02
2023-05-16T13:51:25.012Z,21.83
2023-05-16T13:54:27.977Z,21.96
2023-05-16T13:57:31.357Z,22.35
2023-05-16T14:00:44.425Z,22.14
2023-05-16T14:03:48.289Z,21.24
2023-05-16T14:06:51.728Z,21.43
2023-05-16T14:09:59.711Z,20.99
2023-05-16T14:13:02.623Z,20.57
2023-05-16T14:16:06.425Z,20.52
2023-05-16T14:19:09.261Z,20.14
2023-05-16T14:22:12.214Z,19.77
2023-05-16T14:25:15.041Z,19.90
2023-05-16T14:28:17.767Z,19.82
2023-05-16T14:31:20.753Z,19.51
2023-05-16T14:34:23.716Z,19.62
2023-05-16T14:37:27.551Z,19.15
2023-05-16T14:40:30.507Z,18.97
2023-05-16T14:43:33.231Z,18.88
2023-05-16T14:46:36.331Z,18.97
2023-05-16T14:49:39.204Z,18.95
2023-05-16T14:52:42.029Z,19.05
2023-05-16T14:55:45.307Z,19.02
2023-05-16T14:58:48.131Z,19.12
2023-05-16T15:01:51.043Z,19.06
2023-05-16T15:04:54.924Z,19.10
2023-05-16T15:07:58.181Z,18.98
2023-05-16T15:11:01.466Z,18.86
2023-05-16T15:14:04.223Z,18.89
2023-05-16T15:17:08.944Z,18.78
2023-05-16T15:20:12.791Z,18.62
2023-05-16T15:23:15.633Z,18.43
2023-05-16T15:26:18.928Z,18.45
2023-05-16T15:29:21.748Z,18.48
2023-05-16T15:32:24.611Z,18.57
2023-05-16T15:35:27.663Z,18.55
2023-05-16T15:38:30.753Z,18.69
2023-05-16T15:41:56.911Z,18.96
2023-05-16T15:44:56.437Z,19.32
2023-05-16T15:47:59.162Z,19.30
2023-05-16T15:51:01.941Z,19.13
2023-05-16T15:54:05.064Z,19.28
2023-05-16T15:57:07.833Z,19.06
2023-05-16T16:00:11.294Z,19.07
2023-05-16T16:03:16.967Z,18.90
2023-05-16T16:06:19.726Z,18.79
2023-05-16T16:09:22.497Z,18.89
2023-05-16T16:12:25.354Z,18.85
2023-05-16T16:15:31.944Z,18.68
2023-05-16T16:18:35.887Z,18.51
2023-05-16T16:21:38.968Z,18.47
2023-05-16T16:24:41.776Z,18.26
2023-05-16T16:27:45.080Z,18.23
2023-05-16T16:30:50.460Z,18.25
2023-05-16T16:33:54.900Z,18.34
2023-05-16T16:36:57.677Z,18.34
2023-05-16T16:40:00.608Z,18.33
2023-05-16T16:43:06.023Z,18.28
2023-05-16T16:46:09.036Z,18.32
2023-05-16T16:49:12.047Z,18.25
2023-05-16T16:52:15.263Z,18.19
2023-05-16T16:55:18.013Z,18.11
2023-05-16T16:58:20.913Z,18.09
2023-05-16T17:01:23.967Z,18.08
2023-05-16T17:04:26.821Z,18.01
2023-05-16T17:07:29.603Z,17.99
2023-05-16T17:10:32.536Z,17.92
2023-05-16T17:13:37.828Z,17.87
2023-05-16T17:16:41.287Z,17.71
2023-05-16T17:19:46.225Z,17.67
2023-05-16T17:22:49.056Z,17.65
2023-05-16T17:25:51.876Z,17.75
2023-05-16T17:28:56.554Z,17.85
2023-05-16T17:31:59.453Z,17.80
2023-05-16T17:35:04.309Z,17.81
2023-05-16T17:38:07.343Z,17.44
2023-05-16T17:41:10.272Z,17.42
2023-05-16T17:44:13.141Z,17.50
2023-05-16T17:47:16.745Z,17.36
2023-05-16T17:50:20.400Z,17.36
2023-05-16T17:53:23.989Z,17.08
2023-05-16T17:56:26.756Z,17.01
2023-05-16T17:59:30.133Z,16.92
2023-05-16T18:02:34.251Z,16.81
2023-05-16T18:05:38.464Z,16.85
2023-05-16T18:08:41.279Z,16.78
2023-05-16T18:11:44.236Z,16.69
2023-05-16T18:14:47.189Z,16.47
2023-05-16T18:17:50.391Z,16.15
2023-05-16T18:20:54.211Z,16.00
2023-05-16T18:23:59.229Z,15.93
2023-05-16T18:27:03.284Z,15.81
2023-05-16T18:30:07.198Z,15.78
2023-05-16T18:33:10.474Z,15.66
2023-05-16T18:36:13.520Z,15.64
2023-05-16T18:39:18.766Z,15.51
2023-05-16T18:42:21.714Z,15.38
2023-05-16T18:45:27.130Z,15.34
2023-05-16T18:48:30.323Z,15.37
2023-05-16T18:51:33.174Z,15.33
2023-05-16T18:54:37.164Z,15.31
2023-05-16T18:57:39.945Z,15.18
2023-05-16T19:00:43.100Z,15.12
2023-05-16T19:03:46.082Z,15.16
2023-05-16T19:06:49.182Z,15.10
2023-05-16T19:09:52.294Z,15.04
2023-05-16T19:12:55.154Z,15.05
2023-05-16T19:15:58.721Z,14.98
2023-05-16T19:19:01.905Z,14.88
2023-05-16T19:22:05.148Z,14.80
2023-05-16T19:25:08.822Z,14.64
2023-05-16T19:28:11.709Z,14.48
2023-05-16T19:31:14.796Z,14.44
2023-05-16T19:34:20.124Z,14.39
2023-05-16T19:37:23.596Z,14.43
2023-05-16T19:40:26.451Z,14.39
2023-05-16T19:43:29.811Z,14.39
2023-05-16T19:46:33.608Z,14.35
2023-05-16T19:49:36.486Z,14.33
2023-05-16T19:52:39.246Z,14.34
2023-05-16T19:55:42.009Z,14.27
2023-05-16T19:58:44.919Z,14.17
2023-05-16T20:01:47.678Z,14.19
2023-05-16T20:04:50.531Z,14.10
2023-05-16T20:13:45.224Z,13.93
2023-05-16T20:16:47.918Z,13.86
2023-05-16T20:19:50.752Z,13.72
2023-05-16T20:28:33.252Z,13.62
2023-05-16T20:32:40.020Z,13.57
2023-05-16T20:35:42.747Z,13.61
2023-05-16T20:38:45.848Z,13.67
2023-05-16T20:41:48.645Z,13.60
2023-05-16T20:44:51.419Z,13.62
2023-05-16T20:47:54.230Z,13.55
2023-05-16T20:50:57.208Z,13.49
2023-05-16T20:53:59.978Z,13.49
2023-05-16T20:57:02.967Z,13.59
2023-05-16T21:00:06.421Z,13.63
2023-05-16T21:03:09.296Z,13.52
2023-05-16T21:06:12.285Z,13.60
2023-05-16T21:09:15.063Z,13.60
2023-05-16T21:12:19.906Z,13.57
2023-05-16T21:15:23.630Z,13.66
2023-05-16T21:18:26.719Z,13.73
2023-05-16T21:21:29.687Z,13.68
2023-05-16T21:24:37.486Z,13.56
2023-05-16T21:27:40.275Z,13.60
2023-05-16T21:30:42.976Z,13.53
2023-05-16T21:33:45.822Z,13.50
2023-05-16T21:36:48.565Z,13.47
2023-05-16T21:39:51.308Z,13.54
2023-05-16T21:42:54.083Z,13.53
2023-05-16T21:45:56.843Z,13.54
2023-05-16T21:48:59.603Z,13.53
2023-05-16T21:52:03.488Z,13.52
2023-05-16T21:55:08.138Z,13.66
2023-05-16T21:58:10.924Z,13.62
2023-05-16T22:01:13.786Z,13.62
2023-05-16T22:04:16.702Z,13.67
2023-05-16T22:07:19.948Z,13.59
2023-05-16T22:10:23.313Z,13.48
2023-05-16T22:13:26.673Z,13.49
2023-05-16T22:16:29.471Z,13.51
2023-05-16T22:19:32.276Z,13.51
2023-05-16T22:22:35.064Z,13.54
2023-05-16T22:25:37.773Z,13.37
2023-05-16T22:28:40.551Z,13.41
2023-05-16T22:31:44.113Z,13.30
2023-05-16T22:34:46.861Z,13.25
2023-05-16T22:37:49.788Z,13.18
2023-05-16T22:40:52.666Z,13.20
2023-05-16T22:43:55.511Z,13.26
2023-05-16T22:46:58.233Z,13.27
2023-05-16T22:50:01.040Z,13.14
2023-05-16T22:53:03.792Z,13.08
2023-05-16T22:56:08.113Z,13.10
2023-05-16T22:59:11.181Z,13.16
2023-05-16T23:02:13.947Z,13.15
2023-05-16T23:05:16.726Z,13.10
2023-05-16T23:08:19.773Z,12.95
2023-05-16T23:11:23.815Z,12.87
2023-05-16T23:14:26.640Z,12.81
2023-05-16T23:17:29.419Z,12.74
2023-05-16T23:20:32.505Z,12.65
2023-05-16T23:23:35.445Z,12.59
2023-05-16T23:26:38.240Z,12.68
2023-05-16T23:29:41.018Z,12.76
2023-05-16T23:32:43.864Z,12.70
2023-05-16T23:35:46.617Z,12.70
2023-05-16T23:38:49.314Z,12.66
2023-05-16T23:41:52.051Z,12.69
2023-05-16T23:44:54.797Z,12.55
2023-05-16T23:47:57.590Z,12.58
2023-05-16T23:51:00.603Z,12.54
2023-05-16T23:54:03.319Z,12.44
2023-05-16T23:57:06.216Z,12.47
